createdAt,value
2022-12-18T00:00:43.154Z,5.45
2022-12-18T00:05:53.618Z,5.44
2022-12-18T00:11:00.545Z,5.49
2022-12-18T00:16:06.240Z,5.55
2022-12-18T00:21:12.629Z,5.56
2022-12-18T00:26:22.277Z,5.62
2022-12-18T00:31:29.083Z,5.64
2022-12-18T00:36:34.960Z,5.67
2022-12-18T00:41:57.064Z,5.76
2022-12-18T00:47:00.309Z,5.69
2022-12-18T00:52:03.350Z,5.72
2022-12-18T00:57:07.133Z,5.68
2022-12-18T01:02:10.384Z,5.64
2022-12-18T01:07:13.683Z,5.61
2022-12-18T01:12:17.140Z,5.58
2022-12-18T01:17:20.290Z,5.57
2022-12-18T01:22:24.110Z,5.47
2022-12-18T01:27:27.278Z,5.38
2022-12-18T01:32:33.898Z,5.31
2022-12-18T01:37:38.649Z,5.23
2022-12-18T01:42:42.365Z,5.22
2022-12-18T01:47:47.185Z,5.25
2022-12-18T01:52:57.164Z,5.20
2022-12-18T01:58:01.883Z,5.17
2022-12-18T02:03:05.106Z,5.06
2022-12-18T02:08:22.149Z,5.05
2022-12-18T02:13:32.396Z,5.01
2022-12-18T02:18:40.340Z,4.95
2022-12-18T02:24:13.521Z,4.94
2022-12-18T02:29:29.229Z,4.84
2022-12-18T02:34:37.471Z,4.85
2022-12-18T02:39:46.124Z,4.71
2022-12-18T02:44:53.041Z,4.65
2022-12-18T02:50:19.844Z,4.56
2022-12-18T02:56:02.022Z,4.51
2022-12-18T03:01:11.084Z,4.46
2022-12-18T03:06:24.876Z,4.41
2022-12-18T03:11:53.953Z,4.39
2022-12-18T03:17:04.387Z,4.38
2022-12-18T03:22:09.825Z,4.32
2022-12-18T03:27:25.752Z,4.37
2022-12-18T03:32:35.119Z,4.33
2022-12-18T03:37:39.897Z,4.25
2022-12-18T03:42:53.006Z,4.27
2022-12-18T03:48:02.808Z,4.22
2022-12-18T03:53:23.339Z,4.22
2022-12-18T03:58:28.072Z,4.22
2022-12-18T04:03:42.727Z,4.25
2022-12-18T04:08:48.771Z,4.29
2022-12-18T04:13:59.902Z,4.28
2022-12-18T04:19:03.457Z,4.23
2022-12-18T04:24:12.623Z,4.17
2022-12-18T04:29:24.115Z,4.20
2022-12-18T04:34:27.419Z,4.10
2022-12-18T04:39:32.153Z,4.06
2022-12-18T04:44:41.212Z,4.15
2022-12-18T04:49:45.616Z,4.11
2022-12-18T04:54:48.860Z,4.11
2022-12-18T04:59:52.331Z,4.09
2022-12-18T05:04:56.752Z,4.05
2022-12-18T05:10:00.026Z,3.98
2022-12-18T05:15:03.539Z,3.92
2022-12-18T05:20:06.786Z,3.88
2022-12-18T05:25:10.370Z,3.84
2022-12-18T05:30:14.361Z,3.94
2022-12-18T05:35:17.859Z,3.97
2022-12-18T05:40:23.232Z,3.95
2022-12-18T05:45:26.455Z,3.92
2022-12-18T05:50:29.473Z,3.92
2022-12-18T05:55:38.974Z,4.06
2022-12-18T06:00:45.276Z,4.55
2022-12-18T06:05:48.716Z,4.75
2022-12-18T06:10:53.847Z,4.66
2022-12-18T06:15:57.448Z,4.89
2022-12-18T06:21:02.064Z,5.41
2022-12-18T06:26:13.337Z,5.77
2022-12-18T06:31:17.413Z,6.03
2022-12-18T06:36:21.389Z,6.30
2022-12-18T06:41:25.348Z,6.56
2022-12-18T06:46:29.240Z,6.78
2022-12-18T06:51:32.311Z,7.13
2022-12-18T06:56:36.358Z,7.49
2022-12-18T07:01:39.727Z,7.96
2022-12-18T07:06:43.904Z,9.58
2022-12-18T07:11:46.916Z,14.72
2022-12-18T07:16:50.409Z,16.91
2022-12-18T07:21:53.499Z,18.97
2022-12-18T07:26:57.470Z,19.01
2022-12-18T07:32:01.068Z,19.36
2022-12-18T07:37:05.848Z,20.96
2022-12-18T07:42:28.040Z,21.95
2022-12-18T07:47:32.904Z,21.97
2022-12-18T07:52:36.602Z,21.63
2022-12-18T07:58:00.811Z,22.50
2022-12-18T08:03:04.237Z,23.18
2022-12-18T08:08:07.313Z,21.88
2022-12-18T08:13:10.329Z,21.28
2022-12-18T08:18:14.541Z,22.72
2022-12-18T08:23:18.394Z,23.79
2022-12-18T08:28:22.012Z,23.59
2022-12-18T08:33:25.167Z,21.64
2022-12-18T08:38:29.685Z,21.51
2022-12-18T08:43:51.997Z,23.15
2022-12-18T08:48:57.243Z,24.44
2022-12-18T08:54:01.185Z,23.11
2022-12-18T08:59:05.686Z,25.23
2022-12-18T09:04:10.929Z,24.61
2022-12-18T09:09:15.015Z,24.19
2022-12-18T09:14:18.459Z,24.28
2022-12-18T10:10:47.978Z,23.61
2022-12-18T10:15:58.619Z,23.40
2022-12-18T10:21:12.795Z,23.36
2022-12-18T11:29:13.186Z,18.43
2022-12-18T11:34:32.455Z,18.35
2022-12-18T11:39:44.665Z,18.33
2022-12-18T11:45:02.521Z,19.12
2022-12-18T11:50:29.796Z,19.44
2022-12-18T11:55:43.265Z,18.87
2022-12-18T12:01:02.366Z,19.32
2022-12-18T12:06:23.926Z,19.52
2022-12-18T12:11:33.951Z,20.08
2022-12-18T12:16:59.046Z,19.37
2022-12-18T12:22:18.156Z,19.31
2022-12-18T12:27:49.049Z,19.99
2022-12-18T12:33:07.462Z,20.07
2022-12-18T12:38:28.064Z,20.75
2022-12-18T12:43:43.436Z,20.23
2022-12-18T12:49:03.811Z,18.70
2022-12-18T12:54:16.883Z,19.37
2022-12-18T13:01:05.309Z,20.07
2022-12-18T13:06:57.463Z,21.86
2022-12-18T13:12:25.343Z,22.96
2022-12-18T13:17:32.222Z,22.90
2022-12-18T13:22:40.318Z,21.50
2022-12-18T13:27:46.818Z,20.97
2022-12-18T13:54:20.323Z,20.90
2022-12-18T13:59:36.092Z,20.87
2022-12-18T14:04:39.848Z,20.18
2022-12-18T14:09:50.080Z,20.71
2022-12-18T14:14:55.101Z,20.49
2022-12-18T14:19:59.467Z,18.57
2022-12-18T14:25:12.069Z,16.20
2022-12-18T14:30:28.658Z,15.23
2022-12-18T14:35:34.157Z,14.61
2022-12-18T14:40:37.880Z,14.38
2022-12-18T14:45:44.578Z,13.97
2022-12-18T14:50:57.939Z,13.50
2022-12-18T14:56:01.722Z,12.92
2022-12-18T15:01:05.226Z,12.66
2022-12-18T15:06:28.739Z,12.43
2022-12-18T15:11:45.509Z,12.36
2022-12-18T15:16:53.470Z,12.43
2022-12-18T15:22:04.398Z,12.25
2022-12-18T15:27:26.520Z,11.88
2022-12-18T15:32:30.361Z,11.59
2022-12-18T15:37:35.305Z,11.19
2022-12-18T15:42:58.502Z,10.83
2022-12-18T15:48:03.710Z,10.53
2022-12-18T15:53:11.268Z,10.28
2022-12-18T15:58:14.463Z,10.05
2022-12-18T16:03:19.623Z,9.95
2022-12-18T16:08:23.222Z,9.83
2022-12-18T16:13:26.968Z,9.77
2022-12-18T16:18:31.626Z,9.70
2022-12-18T16:23:36.706Z,9.76
2022-12-18T16:28:45.172Z,9.85
2022-12-18T16:34:14.705Z,9.99
2022-12-18T16:39:26.136Z,10.19
2022-12-18T16:44:37.881Z,10.44
2022-12-18T16:49:49.363Z,10.51
2022-12-18T16:54:55.572Z,10.50
2022-12-18T17:00:05.296Z,10.42
2022-12-18T17:05:10.995Z,10.40
2022-12-18T17:10:17.157Z,10.40
2022-12-18T17:15:23.649Z,10.40
2022-12-18T17:20:28.548Z,10.34
2022-12-18T17:25:33.385Z,10.36
2022-12-18T17:30:37.786Z,10.17
2022-12-18T17:35:41.265Z,9.96
2022-12-18T17:40:46.613Z,9.75
2022-12-18T17:45:50.842Z,9.64
2022-12-18T17:50:55.910Z,9.61
2022-12-18T17:56:06.424Z,9.53
2022-12-18T18:01:16.082Z,9.42
2022-12-18T18:06:19.837Z,9.27
2022-12-18T18:11:44.019Z,9.13
2022-12-18T18:16:49.294Z,9.02
2022-12-18T18:21:54.622Z,8.89
2022-12-18T18:27:01.786Z,8.79
2022-12-18T18:32:05.714Z,8.65
2022-12-18T18:37:10.694Z,8.52
2022-12-18T18:42:14.158Z,8.38
2022-12-18T18:47:17.595Z,8.41
2022-12-18T18:52:21.239Z,8.20
2022-12-18T18:57:29.991Z,7.98
2022-12-18T19:02:33.545Z,7.97
2022-12-18T19:07:37.310Z,7.81
2022-12-18T19:12:59.690Z,7.64
2022-12-18T19:18:03.366Z,7.61
2022-12-18T19:23:07.002Z,7.73
2022-12-18T19:28:15.341Z,8.12
2022-12-18T19:38:49.973Z,8.27
2022-12-18T19:43:54.147Z,8.15
2022-12-18T19:49:02.909Z,8.21
2022-12-18T19:54:07.178Z,8.16
2022-12-18T19:59:11.133Z,8.06
2022-12-18T20:04:14.962Z,8.05
2022-12-18T20:09:19.407Z,7.89
2022-12-18T20:14:23.910Z,7.70
2022-12-18T20:19:28.201Z,7.56
2022-12-18T20:24:32.657Z,7.43
2022-12-18T20:29:36.988Z,7.29
2022-12-18T20:34:41.176Z,7.25
2022-12-18T20:39:45.759Z,7.14
2022-12-18T20:44:49.935Z,7.03
2022-12-18T20:49:53.951Z,6.94
2022-12-18T20:54:57.668Z,6.92
2022-12-18T21:00:03.075Z,6.87
2022-12-18T21:05:06.944Z,6.86
2022-12-18T21:10:10.378Z,6.81
2022-12-18T21:15:14.160Z,6.81
2022-12-18T21:20:18.983Z,6.74
2022-12-18T21:25:22.396Z,6.64
2022-12-18T21:30:26.113Z,6.39
2022-12-18T21:35:29.268Z,6.37
2022-12-18T21:40:35.401Z,6.42
2022-12-18T21:45:39.844Z,6.58
2022-12-18T21:50:42.894Z,6.67
2022-12-18T21:55:46.424Z,6.64
2022-12-18T22:00:50.409Z,6.67
2022-12-18T22:06:07.562Z,6.69
2022-12-18T22:11:13.471Z,6.70
2022-12-18T22:16:17.429Z,6.69
2022-12-18T22:21:29.345Z,6.73
2022-12-18T22:26:39.819Z,6.73
2022-12-18T22:31:45.144Z,6.79
2022-12-18T22:36:49.071Z,6.88
2022-12-18T22:41:53.848Z,6.88
2022-12-18T22:47:02.886Z,6.87
2022-12-18T22:52:11.120Z,6.76
2022-12-18T22:57:14.274Z,6.68
2022-12-18T23:02:19.316Z,6.54
2022-12-18T23:07:23.461Z,6.28
2022-12-18T23:12:26.544Z,6.12
2022-12-18T23:17:30.137Z,6.03
2022-12-18T23:22:33.410Z,6.00
2022-12-18T23:27:37.184Z,5.95
2022-12-18T23:32:41.472Z,5.98
2022-12-18T23:38:01.044Z,5.98
2022-12-18T23:43:04.786Z,6.00
2022-12-18T23:48:08.232Z,6.19
2022-12-18T23:53:11.579Z,6.26
2022-12-18T23:58:21.900Z,6.22
